Liberal Mid-America Regional Airport
KLBL : now visible

Aeroporto :











RITROVATECI SU...

 
LOGIN :

Iscrizione | Disclaimer

   EN    FR    IT 

 









Sommario :    VFR   VFR Marginale   IFR   IFR Intensivo   IFR Molto Intensivo
Visibilità : 
Base nubi : 
>= 8 km
>= 3000ft
5 / 8 km
1000 / 3000 ft
1500m / 5 km
500 / 1000 ft
800 / 1500m
200 / 500 ft
< 800m
< 200 ft
Simboli :   Temporali  Nebbia  Neve Forte  Precipitazioni Forti  Vento > 20 kt







- Altitudine del aeroporto : 2885 ft
- Codice IATA : LBL


KLBL - Liberal Mid-America Regional

ULTIMO METAR :
  • 210556Z AUTO 19016KT 10SM CLR 19/07 A2971 RMK AO2 SLP031 T01890067 10300 20189 403110050 50006

METARs OBSOLETI :
  • 210456Z AUTO 19017KT 10SM CLR 19/07 A2972 RMK AO2 PK WND 18027/0409 SLP034 T01940072
  • 210356Z AUTO 18020KT 10SM CLR 22/07 A2971 RMK AO2 PK WND 18030/0340 SLP031 T02170067

TAF KLBL
Valido dal 21 a 06 ore il 22 a 06 ore UTC


210520Z 2106/2206 18018G28KT P6SM SCT250 WS020/20055KT
FM210900 21012KT P6SM SCT250
FM211500 23015G25KT P6SM SCT250
FM220000 24012KT P6SM BKN200
FM220300 36013G23KT P6SM BKN150
FIR KZKC / America del Nord



MetMap, La meteo Aeronautica in un colpo d'occhio ! - Copyright ORBIFLY Dicembre 2007 - Disclaimer

ORBIFLY MET'MAP TEAM :

Programmazione e sviluppo : Alexandra Zaïnal
Concezione e sviluppo : Baudouin d'Aumeries
Co-Programmazione e sviluppo : Marc-Olivier Méhu
Supporto tecnico e logistico : Manuel Goepfert
Aiuto per la traduzione : Arnaldo La Scala

Contatto : metmap@orbifly.com




FONTI E CREDITI :

   NOAA       Earth
Advisory